Time;durP1;ratioP1;P1;durP2;ratioP2;P2;SDS_P1;SDS_P2;PMS_P1;PMS_P2;Temp;Humidity;BMP_temperature;BMP_pressure;BME280_temperature;BME280_humidity;BME280_pressure;Samples;Min_cycle;Max_cycle;Signal;HPM_P1;HPM_P2
2023/03/23 00:00:41;;;;;;;3.95;0.77;;;;;;;12.35;69.31;99854.50;6053169;28;20116;-72
2023/03/23 00:03:37;;;;;;;3.33;1.17;;;;;;;12.26;70.03;99850.25;6052788;28;20038;-73
2023/03/23 00:06:34;;;;;;;1.80;0.73;;;;;;;12.25;71.38;99865.41;6052182;28;20287;-73
2023/03/23 00:09:34;;;;;;;2.30;0.70;;;;;;;12.26;71.64;99866.19;6053197;28;20532;-73
2023/03/23 00:12:34;;;;;;;3.08;0.88;;;;;;;12.16;72.75;99852.31;6052307;28;20034;-73
2023/03/23 00:15:33;;;;;;;2.53;1.15;;;;;;;12.11;72.40;99857.34;6052753;28;20128;-73
2023/03/23 00:18:28;;;;;;;1.95;0.90;;;;;;;12.23;71.92;99864.72;6052616;28;20521;-73
2023/03/23 00:21:32;;;;;;;2.58;1.00;;;;;;;12.18;71.73;99848.47;6052683;28;20048;-73
2023/03/23 00:24:28;;;;;;;2.33;0.77;;;;;;;12.22;71.87;99839.16;6052402;28;20495;-72
2023/03/23 00:27:24;;;;;;;2.92;1.10;;;;;;;12.25;72.57;99859.25;6052648;28;20038;-73
2023/03/23 00:30:19;;;;;;;3.27;1.00;;;;;;;12.16;73.95;99849.66;6052683;28;20065;-73
2023/03/23 00:33:16;;;;;;;2.70;1.00;;;;;;;11.99;76.83;99848.13;6051878;28;20400;-73
2023/03/23 00:36:12;;;;;;;2.42;1.20;;;;;;;11.77;80.28;99861.19;6052499;28;20508;-72
2023/03/23 00:39:08;;;;;;;3.33;1.20;;;;;;;11.47;83.30;99848.72;6051887;28;20385;-73
2023/03/23 00:42:04;;;;;;;4.47;1.23;;;;;;;11.31;85.03;99841.66;6051668;28;20057;-72
2023/03/23 00:45:00;;;;;;;4.45;1.40;;;;;;;11.13;87.28;99841.06;6052481;28;20025;-72
2023/03/23 00:47:56;;;;;;;6.72;1.40;;;;;;;11.10;88.73;99844.06;6051303;28;20057;-73
2023/03/23 00:50:52;;;;;;;2.63;1.23;;;;;;;10.94;89.90;99830.84;6052338;28;20469;-72
2023/03/23 00:53:47;;;;;;;3.78;1.13;;;;;;;10.92;90.52;99832.00;6051490;28;20045;-73
2023/03/23 00:56:42;;;;;;;3.50;1.40;;;;;;;10.99;90.92;99835.63;6051483;28;20470;-72
2023/03/23 00:59:38;;;;;;;4.63;1.40;;;;;;;10.95;90.28;99821.06;6051851;28;20631;-72
2023/03/23 01:02:35;;;;;;;2.88;1.27;;;;;;;10.93;90.67;99813.25;6051192;28;20109;-72
2023/03/23 01:05:35;;;;;;;5.20;1.60;;;;;;;10.95;91.73;99823.72;6051826;28;20108;-73
2023/03/23 01:08:31;;;;;;;5.60;1.30;;;;;;;10.93;91.39;99818.56;6051897;28;20120;-72
2023/03/23 01:11:26;;;;;;;3.75;1.33;;;;;;;10.91;91.24;99814.44;6051362;28;20469;-73
2023/03/23 01:14:21;;;;;;;2.60;1.40;;;;;;;10.95;92.13;99821.06;6050961;28;20136;-72
2023/03/23 01:17:18;;;;;;;2.67;1.40;;;;;;;10.90;92.13;99823.41;6051399;28;20113;-72
2023/03/23 01:20:15;;;;;;;7.32;1.58;;;;;;;10.86;91.78;99803.50;6051655;28;20120;-72
2023/03/23 01:23:10;;;;;;;3.65;1.27;;;;;;;10.84;92.33;99805.50;6050962;28;20033;-72
2023/03/23 01:26:11;;;;;;;4.03;2.00;;;;;;;10.92;92.08;99805.47;6050764;28;20052;-72
2023/03/23 01:29:06;;;;;;;5.18;1.42;;;;;;;10.87;91.88;99810.47;6051543;28;20037;-72
2023/03/23 01:32:02;;;;;;;4.67;1.50;;;;;;;10.87;92.87;99813.94;6050510;28;20045;-72
2023/03/23 01:34:58;;;;;;;6.45;1.40;;;;;;;10.83;92.68;99801.19;6051231;28;20138;-72
2023/03/23 01:37:54;;;;;;;4.00;1.63;;;;;;;10.82;92.09;99799.56;6050839;28;20501;-73
2023/03/23 01:40:49;;;;;;;7.07;1.10;;;;;;;10.82;92.42;99781.78;6051237;28;20038;-73
2023/03/23 01:44:16;;;;;;;5.60;1.50;;;;;;;10.92;92.57;99797.53;6050510;28;20088;-72
2023/03/23 01:47:12;;;;;;;3.45;1.30;;;;;;;10.94;91.77;99782.25;6035920;28;20057;-72
2023/03/23 01:50:07;;;;;;;4.43;1.50;;;;;;;10.96;92.19;99790.88;6051118;28;20438;-72
2023/03/23 01:53:08;;;;;;;4.57;1.40;;;;;;;10.89;91.75;99776.66;6049967;28;20264;-72
2023/03/23 01:56:04;;;;;;;2.55;1.15;;;;;;;10.95;91.41;99773.31;6049812;28;20073;-73
2023/03/23 01:58:59;;;;;;;3.38;1.33;;;;;;;10.97;91.91;99797.84;6050391;28;20091;-73
2023/03/23 02:01:55;;;;;;;5.03;1.58;;;;;;;10.89;91.81;99763.38;6049924;28;20041;-72
2023/03/23 02:04:51;;;;;;;5.53;1.17;;;;;;;10.88;92.04;99767.84;6049367;28;20038;-74
2023/03/23 02:07:47;;;;;;;5.07;1.20;;;;;;;10.91;91.78;99766.69;6048652;28;20029;-73
2023/03/23 02:10:43;;;;;;;4.82;1.17;;;;;;;11.02;91.05;99779.56;6041389;28;20126;-73
2023/03/23 02:13:38;;;;;;;6.57;1.50;;;;;;;10.93;91.93;99767.34;6044904;28;20033;-73
2023/03/23 02:16:56;;;;;;;5.67;1.50;;;;;;;10.96;92.25;99780.25;6050200;28;20360;-73
2023/03/23 02:20:33;;;;;;;5.18;1.38;;;;;;;10.93;92.81;99784.06;6048805;28;20287;-74
2023/03/23 02:23:51;;;;;;;2.72;1.05;;;;;;;10.91;92.19;99772.81;6048453;28;20465;-74
2023/03/23 02:26:57;;;;;;;4.75;1.23;;;;;;;10.97;91.46;99773.97;6050380;28;20033;-72
2023/03/23 02:29:58;;;;;;;3.90;1.20;;;;;;;11.04;90.73;99772.25;6048942;28;20037;-73
2023/03/23 02:33:24;;;;;;;3.58;1.33;;;;;;;11.05;90.45;99763.31;6049247;28;20037;-73
2023/03/23 02:36:25;;;;;;;3.42;1.40;;;;;;;11.07;90.43;99740.09;6049606;28;20034;-73
2023/03/23 02:39:26;;;;;;;3.33;1.15;;;;;;;11.24;88.98;99758.41;6049007;28;20037;-73
2023/03/23 02:42:25;;;;;;;4.07;1.45;;;;;;;11.22;88.29;99746.31;6049228;28;20497;-72
2023/03/23 02:45:21;;;;;;;2.38;1.13;;;;;;;11.33;87.71;99745.94;6048534;28;20037;-73
2023/03/23 02:48:19;;;;;;;2.38;0.85;;;;;;;11.36;86.65;99740.25;6049786;28;20048;-73
2023/03/23 02:51:15;;;;;;;2.22;1.00;;;;;;;11.49;86.54;99756.47;6041007;28;20054;-73
2023/03/23 02:54:11;;;;;;;3.60;1.05;;;;;;;11.51;87.01;99756.28;6046645;28;20125;-74
2023/03/23 02:57:07;;;;;;;2.47;0.88;;;;;;;11.42;88.35;99754.66;6048110;28;20389;-73
2023/03/23 03:00:09;;;;;;;2.72;1.20;;;;;;;11.26;89.63;99743.16;6048433;28;20037;-73
2023/03/23 03:03:09;;;;;;;4.25;1.25;;;;;;;11.21;90.25;99752.63;6048661;28;20060;-74
2023/03/23 03:06:10;;;;;;;3.03;1.20;;;;;;;11.17;90.64;99752.13;6048617;28;20560;-74
2023/03/23 03:09:26;;;;;;;4.45;1.40;;;;;;;11.14;90.91;99736.56;6040760;28;20457;-73
2023/03/23 03:12:30;;;;;;;3.72;1.00;;;;;;;11.14;90.85;99725.16;6046855;28;20041;-73
2023/03/23 03:15:36;;;;;;;2.47;1.13;;;;;;;11.10;91.50;99723.81;6049611;28;20041;-73
2023/03/23 03:18:38;;;;;;;6.00;1.63;;;;;;;11.10;91.43;99742.41;6047675;28;20030;-73
2023/03/23 03:21:36;;;;;;;4.72;1.33;;;;;;;11.13;92.22;99752.66;6049285;28;20042;-73
2023/03/23 03:24:32;;;;;;;1.80;0.95;;;;;;;10.95;93.12;99723.72;6051929;28;20087;-73
2023/03/23 03:27:28;;;;;;;4.25;1.60;;;;;;;10.93;94.16;99732.84;6054431;28;20041;-74
2023/03/23 03:30:27;;;;;;;3.40;1.40;;;;;;;10.93;94.76;99738.16;6045461;28;20101;-73
2023/03/23 03:33:27;;;;;;;5.93;1.38;;;;;;;10.83;95.09;99729.59;6042683;28;20031;-73
2023/03/23 03:36:26;;;;;;;4.22;1.40;;;;;;;10.79;96.04;99736.25;6048584;28;20481;-73
2023/03/23 03:39:21;;;;;;;2.67;1.52;;;;;;;10.74;96.89;99732.25;6052409;28;20061;-73
2023/03/23 03:42:17;;;;;;;2.92;1.15;;;;;;;10.74;96.92;99734.91;6053265;28;20030;-73
2023/03/23 03:45:15;;;;;;;4.37;1.60;;;;;;;10.69;97.10;99721.34;6053564;28;20117;-74
2023/03/23 03:48:11;;;;;;;3.42;1.50;;;;;;;10.67;96.59;99725.16;6053877;28;20040;-72
2023/03/23 03:51:06;;;;;;;4.05;1.10;;;;;;;10.74;97.25;99740.22;6053402;28;20038;-73
2023/03/23 03:54:01;;;;;;;2.80;1.40;;;;;;;10.75;96.62;99743.72;6051501;28;20034;-73
2023/03/23 03:56:57;;;;;;;4.60;1.10;;;;;;;10.58;97.87;99723.53;6053211;28;20037;-74
2023/03/23 03:59:52;;;;;;;5.05;1.70;;;;;;;10.56;98.56;99721.06;6053148;28;20397;-73
2023/03/23 04:02:54;;;;;;;5.13;1.20;;;;;;;10.48;100.00;99739.66;6052760;28;20073;-73
2023/03/23 04:05:51;;;;;;;5.40;1.33;;;;;;;10.47;100.00;99731.84;6052903;28;20090;-73
2023/03/23 04:08:46;;;;;;;4.15;1.50;;;;;;;10.32;100.00;99715.84;6053131;28;20493;-73
2023/03/23 04:11:42;;;;;;;3.42;1.40;;;;;;;10.23;100.00;99708.88;6053121;28;20042;-72
2023/03/23 04:14:37;;;;;;;3.20;1.50;;;;;;;10.26;100.00;99723.63;6052406;28;20036;-72
2023/03/23 04:17:32;;;;;;;3.53;1.60;;;;;;;10.26;100.00;99724.44;6049207;28;20038;-73
2023/03/23 04:20:27;;;;;;;4.00;1.80;;;;;;;10.24;100.00;99721.16;6052964;28;20044;-73
2023/03/23 04:23:23;;;;;;;2.60;1.23;;;;;;;10.06;100.00;99708.03;6052032;28;20374;-74
2023/03/23 04:26:18;;;;;;;3.30;1.40;;;;;;;10.12;100.00;99695.94;6052684;28;20408;-73
2023/03/23 04:29:15;;;;;;;3.30;1.50;;;;;;;10.19;100.00;99704.94;6052485;28;20145;-73
2023/03/23 04:32:11;;;;;;;3.63;1.40;;;;;;;10.34;100.00;99721.78;6050142;28;20420;-73
2023/03/23 04:35:06;;;;;;;3.78;1.33;;;;;;;10.23;100.00;99706.22;6052214;28;20026;-74
2023/03/23 04:38:02;;;;;;;2.90;1.55;;;;;;;10.20;100.00;99695.13;6052046;28;20101;-73
2023/03/23 04:40:58;;;;;;;3.33;1.37;;;;;;;10.41;100.00;99728.03;6052650;28;20034;-73
2023/03/23 04:43:56;;;;;;;3.40;1.52;;;;;;;10.42;100.00;99719.09;6051520;28;20113;-73
2023/03/23 04:46:53;;;;;;;3.00;1.40;;;;;;;10.45;100.00;99729.38;6052546;28;20041;-73
2023/03/23 04:49:49;;;;;;;3.88;1.42;;;;;;;10.41;100.00;99696.25;6051698;28;20096;-72
2023/03/23 04:52:44;;;;;;;3.93;1.63;;;;;;;10.45;99.97;99692.28;6050925;28;20065;-73
2023/03/23 04:55:40;;;;;;;6.72;1.67;;;;;;;10.53;99.08;99683.47;6052137;28;20272;-72
2023/03/23 04:58:36;;;;;;;5.05;1.70;;;;;;;10.56;98.77;99691.91;6050740;28;20108;-72
2023/03/23 05:01:31;;;;;;;6.40;1.50;;;;;;;10.60;97.62;99687.91;6051712;28;20473;-73
2023/03/23 05:04:27;;;;;;;2.85;1.20;;;;;;;10.53;97.52;99688.75;6051207;28;20113;-73
2023/03/23 05:07:22;;;;;;;2.22;1.10;;;;;;;10.54;97.96;99691.25;6051957;28;20034;-72
2023/03/23 05:10:17;;;;;;;3.87;1.20;;;;;;;10.50;98.15;99683.78;6051930;28;20038;-74
2023/03/23 05:13:13;;;;;;;3.03;1.30;;;;;;;10.51;97.99;99677.50;6050778;28;20120;-73
2023/03/23 05:16:08;;;;;;;5.43;1.50;;;;;;;10.50;97.83;99674.03;6048840;28;20053;-73
2023/03/23 05:19:04;;;;;;;3.87;1.07;;;;;;;10.44;97.85;99669.41;6051509;28;20106;-73
2023/03/23 05:22:02;;;;;;;4.95;1.38;;;;;;;10.50;97.08;99674.03;6050839;28;20111;-72
2023/03/23 05:25:04;;;;;;;2.50;1.10;;;;;;;10.47;97.64;99689.44;6051316;28;20525;-73
2023/03/23 05:28:00;;;;;;;2.65;1.13;;;;;;;10.53;97.33;99696.72;6051670;28;20044;-74
2023/03/23 05:30:56;;;;;;;3.53;1.60;;;;;;;10.51;97.30;99691.59;6049901;28;20041;-72
2023/03/23 05:33:51;;;;;;;5.45;1.67;;;;;;;10.44;97.45;99680.00;6050096;28;20401;-73
2023/03/23 05:36:47;;;;;;;2.10;0.90;;;;;;;10.42;97.54;99682.00;6050778;28;20409;-73
2023/03/23 05:39:42;;;;;;;5.15;1.20;;;;;;;10.36;97.80;99676.53;6050749;28;20040;-72
2023/03/23 05:42:40;;;;;;;3.10;1.27;;;;;;;10.37;97.54;99696.75;6050086;28;20122;-73
2023/03/23 05:45:36;;;;;;;3.80;1.20;;;;;;;10.44;97.55;99685.31;6050695;28;20482;-71
2023/03/23 05:48:31;;;;;;;2.90;1.10;;;;;;;10.37;97.12;99684.34;6040005;28;20037;-72
2023/03/23 05:51:27;;;;;;;3.10;1.40;;;;;;;10.40;97.01;99673.41;6050772;28;20037;-73
2023/03/23 05:54:22;;;;;;;4.45;1.17;;;;;;;10.41;97.00;99680.34;6049564;28;20644;-73
2023/03/23 05:57:18;;;;;;;3.73;1.47;;;;;;;10.45;96.68;99686.13;6050717;28;20030;-73
2023/03/23 06:00:14;;;;;;;4.55;1.23;;;;;;;10.51;96.28;99696.91;6049964;28;20029;-73
2023/03/23 06:03:09;;;;;;;1.58;0.82;;;;;;;10.47;95.93;99698.22;6048622;28;20026;-73
2023/03/23 06:06:05;;;;;;;2.77;1.63;;;;;;;10.47;95.95;99682.31;6050617;28;20037;-73
2023/03/23 06:09:01;;;;;;;3.08;0.95;;;;;;;10.57;95.86;99698.03;6050276;28;20280;-72
2023/03/23 06:11:56;;;;;;;1.70;0.90;;;;;;;10.46;96.15;99693.09;6049482;28;20048;-72
2023/03/23 06:14:52;;;;;;;2.45;0.90;;;;;;;10.57;95.65;99701.50;6050418;28;20038;-73
2023/03/23 06:17:47;;;;;;;2.78;1.40;;;;;;;10.53;95.80;99688.75;6046584;28;20457;-73
2023/03/23 06:20:43;;;;;;;3.73;1.33;;;;;;;10.60;95.54;99702.97;6050375;28;20092;-73
2023/03/23 06:23:39;;;;;;;2.58;0.93;;;;;;;10.50;95.79;99689.94;6049290;28;20037;-73
2023/03/23 06:26:37;;;;;;;2.83;0.90;;;;;;;10.58;96.03;99700.50;6042603;28;20117;-72
2023/03/23 06:29:33;;;;;;;2.83;1.00;;;;;;;10.64;96.12;99689.22;6049977;28;20488;-73
2023/03/23 06:32:29;;;;;;;2.60;1.10;;;;;;;10.71;95.91;99707.91;6049238;28;20047;-73
2023/03/23 06:35:25;;;;;;;3.17;1.10;;;;;;;10.73;95.55;99697.97;6049118;28;20382;-73
2023/03/23 06:38:20;;;;;;;2.92;1.00;;;;;;;10.77;95.17;99683.34;6049131;28;20048;-73
2023/03/23 06:41:15;;;;;;;3.53;1.30;;;;;;;10.82;95.26;99685.53;6048722;28;20140;-73
2023/03/23 06:44:13;;;;;;;3.13;0.88;;;;;;;10.84;95.93;99696.78;6049145;28;20026;-73
2023/03/23 06:47:08;;;;;;;3.83;1.10;;;;;;;10.83;95.84;99692.44;6040090;28;20172;-73
2023/03/23 06:50:04;;;;;;;2.55;1.23;;;;;;;10.76;96.08;99687.03;6049188;28;20477;-73
2023/03/23 06:52:59;;;;;;;2.72;1.10;;;;;;;10.89;95.70;99684.66;6048880;28;20112;-73
2023/03/23 06:55:55;;;;;;;3.63;1.20;;;;;;;10.99;95.30;99689.72;6049382;28;20034;-73
2023/03/23 06:58:50;;;;;;;2.42;1.13;;;;;;;11.01;95.16;99696.50;6048713;28;20069;-73
2023/03/23 07:01:46;;;;;;;2.65;1.20;;;;;;;11.21;93.96;99712.81;6043692;28;20125;-72
2023/03/23 07:04:41;;;;;;;3.58;1.02;;;;;;;11.46;92.91;99711.69;6048697;28;20040;-73
2023/03/23 07:07:38;;;;;;;3.37;1.20;;;;;;;11.54;91.17;99706.31;6049223;28;20121;-73
2023/03/23 07:10:33;;;;;;;2.30;1.17;;;;;;;11.72;90.90;99736.06;6046472;28;20449;-72
2023/03/23 07:13:29;;;;;;;1.47;1.00;;;;;;;11.79;90.65;99725.56;6047226;28;20042;-73
2023/03/23 07:16:24;;;;;;;2.75;1.10;;;;;;;11.88;89.27;99722.66;6048660;28;20772;-73
2023/03/23 07:19:19;;;;;;;2.57;1.10;;;;;;;11.65;89.96;99711.22;6048303;28;20401;-73
2023/03/23 07:22:15;;;;;;;3.33;0.80;;;;;;;11.70;89.83;99716.84;6046377;28;20608;-72
2023/03/23 07:25:11;;;;;;;3.50;1.10;;;;;;;11.73;90.80;99723.63;6048715;28;20040;-72
2023/03/23 07:28:06;;;;;;;1.98;1.00;;;;;;;11.62;90.85;99716.88;6048644;28;20100;-73
2023/03/23 07:31:02;;;;;;;4.30;1.40;;;;;;;11.61;90.96;99715.22;6048369;28;20050;-73
2023/03/23 07:33:57;;;;;;;2.08;1.27;;;;;;;11.61;91.23;99711.72;6041093;28;20117;-74
2023/03/23 07:36:53;;;;;;;1.93;0.90;;;;;;;11.72;90.51;99714.81;6040443;28;20038;-72
2023/03/23 07:39:48;;;;;;;2.90;1.00;;;;;;;11.81;91.36;99716.41;6048099;28;20033;-74
2023/03/23 07:42:45;;;;;;;5.30;1.20;;;;;;;12.05;89.56;99727.84;6047873;28;20042;-73
2023/03/23 07:45:41;;;;;;;1.33;0.80;;;;;;;12.27;88.52;99722.50;6048370;28;20041;-74
2023/03/23 07:48:37;;;;;;;3.75;1.10;;;;;;;12.43;86.64;99740.94;6048296;28;20500;-74
2023/03/23 07:51:32;;;;;;;6.15;1.30;;;;;;;12.54;86.51;99744.97;6036083;28;20387;-73
2023/03/23 07:54:28;;;;;;;1.33;0.73;;;;;;;12.59;84.87;99734.59;6035069;28;20084;-72
2023/03/23 07:57:23;;;;;;;2.03;0.88;;;;;;;12.66;84.22;99719.59;6042494;28;20113;-72
2023/03/23 08:00:19;;;;;;;1.43;0.90;;;;;;;12.81;82.27;99716.91;6028780;28;20501;-73
2023/03/23 08:03:15;;;;;;;2.08;0.80;;;;;;;13.06;81.93;99736.88;6041821;28;20037;-73
2023/03/23 08:06:10;;;;;;;1.85;0.90;;;;;;;13.17;80.72;99722.31;6048410;28;20030;-72
2023/03/23 08:09:08;;;;;;;2.07;0.93;;;;;;;13.38;79.86;99722.34;6051434;28;20041;-72
2023/03/23 08:12:04;;;;;;;3.28;1.08;;;;;;;13.35;79.08;99725.38;6051578;28;20041;-74
2023/03/23 08:14:59;;;;;;;1.88;1.00;;;;;;;13.40;79.09;99733.66;6052682;28;20068;-72
2023/03/23 08:17:55;;;;;;;1.52;0.70;;;;;;;13.26;79.04;99710.53;6037643;28;20046;-73
2023/03/23 08:20:50;;;;;;;3.78;1.00;;;;;;;13.30;78.90;99706.47;6040826;28;20469;-74
2023/03/23 08:23:46;;;;;;;1.70;0.70;;;;;;;13.62;77.65;99721.97;6042893;28;20030;-73
2023/03/23 08:26:41;;;;;;;2.47;0.97;;;;;;;13.56;76.71;99717.41;6048268;28;20034;-73
2023/03/23 08:29:37;;;;;;;2.05;0.88;;;;;;;13.41;77.03;99682.00;6050692;28;20029;-73
2023/03/23 08:32:34;;;;;;;2.13;0.85;;;;;;;13.48;76.28;99720.22;6051283;28;20366;-73
2023/03/23 08:35:29;;;;;;;1.98;1.08;;;;;;;13.55;76.64;99715.75;6052352;28;20437;-73
2023/03/23 08:38:24;;;;;;;1.57;0.97;;;;;;;13.61;75.89;99709.69;6052268;28;20033;-73
2023/03/23 08:41:20;;;;;;;2.13;0.70;;;;;;;13.69;75.85;99733.53;6038969;28;20022;-73
2023/03/23 08:44:15;;;;;;;2.63;0.98;;;;;;;13.79;75.19;99739.38;6048945;28;20771;-73
2023/03/23 08:47:10;;;;;;;2.83;1.00;;;;;;;13.75;75.24;99739.94;6050253;28;20072;-73
2023/03/23 08:50:08;;;;;;;2.58;0.95;;;;;;;13.81;75.29;99740.00;6041154;28;20276;-73
2023/03/23 08:53:03;;;;;;;3.25;1.00;;;;;;;13.87;74.15;99741.91;6051132;28;20026;-73
2023/03/23 08:56:10;;;;;;;3.95;1.40;;;;;;;13.81;73.88;99731.16;6050852;28;20092;-73
2023/03/23 08:59:06;;;;;;;3.50;1.10;;;;;;;13.89;74.74;99739.84;6046966;28;20028;-73
2023/03/23 09:02:02;;;;;;;4.47;1.30;;;;;;;13.78;72.98;99715.59;6049233;28;20107;-73
2023/03/23 09:04:57;;;;;;;2.00;1.10;;;;;;;13.84;72.44;99734.28;6051574;28;20033;-73
2023/03/23 09:07:54;;;;;;;4.17;1.10;;;;;;;13.74;72.90;99736.44;6050843;28;20297;-73
2023/03/23 09:10:50;;;;;;;4.68;1.15;;;;;;;13.75;73.21;99737.28;6050831;28;20280;-73
2023/03/23 09:13:46;;;;;;;4.68;1.10;;;;;;;13.75;73.58;99742.59;6050634;28;20061;-73
2023/03/23 09:16:42;;;;;;;4.38;1.10;;;;;;;13.87;73.44;99760.56;6050516;28;20052;-73
2023/03/23 09:19:37;;;;;;;2.67;1.10;;;;;;;13.74;72.77;99741.78;6049318;28;20027;-73
2023/03/23 09:22:32;;;;;;;3.80;1.17;;;;;;;13.70;73.19;99759.16;6050508;28;20087;-72
2023/03/23 09:25:28;;;;;;;3.65;1.13;;;;;;;13.62;73.43;99743.28;6051042;28;20041;-72
2023/03/23 09:28:23;;;;;;;5.07;1.33;;;;;;;13.84;73.08;99758.25;6050600;28;20038;-72
2023/03/23 09:31:22;;;;;;;6.33;1.20;;;;;;;13.73;72.66;99753.44;6050558;28;20149;-73
2023/03/23 09:34:17;;;;;;;4.20;1.38;;;;;;;13.66;72.64;99766.72;6049957;28;20025;-73
2023/03/23 09:37:14;;;;;;;5.18;1.25;;;;;;;13.72;73.21;99770.47;6050646;28;20030;-73
2023/03/23 09:40:20;;;;;;;3.80;1.02;;;;;;;13.67;72.68;99780.84;6039654;28;20048;-73
2023/03/23 09:43:43;;;;;;;4.22;1.10;;;;;;;13.64;72.93;99778.56;6049914;28;20025;-73
2023/03/23 09:46:44;;;;;;;6.07;1.40;;;;;;;13.69;73.19;99781.50;6040791;28;20053;-73
2023/03/23 09:49:55;;;;;;;3.33;1.17;;;;;;;13.68;73.06;99787.81;6050795;28;20033;-73
2023/03/23 09:52:55;;;;;;;2.70;1.08;;;;;;;13.57;72.60;99770.50;6046806;28;20120;-73
2023/03/23 09:55:50;;;;;;;3.63;1.23;;;;;;;13.63;72.94;99774.25;6049886;28;20140;-73
2023/03/23 09:58:48;;;;;;;7.38;1.60;;;;;;;13.58;73.77;99780.16;6049968;28;20473;-73
2023/03/23 10:01:47;;;;;;;3.10;1.00;;;;;;;13.49;73.87;99773.28;6050157;28;20034;-72
2023/03/23 10:04:48;;;;;;;2.53;1.05;;;;;;;13.57;74.71;99798.97;6045532;28;20034;-73
2023/03/23 10:07:43;;;;;;;7.38;1.30;;;;;;;13.56;73.81;99797.34;6047023;28;20042;-73
2023/03/23 10:10:50;;;;;;;4.70;1.20;;;;;;;13.58;73.76;99795.31;6049032;28;20469;-73
2023/03/23 10:14:04;;;;;;;5.18;1.15;;;;;;;13.62;72.93;99793.91;6049245;28;20509;-73
2023/03/23 10:17:17;;;;;;;2.08;0.90;;;;;;;13.67;72.86;99807.47;6049327;28;20533;-73
2023/03/23 10:20:14;;;;;;;;;;;;;;;13.86;72.06;99806.88;6049968;28;20034;-73
2023/03/23 10:23:19;;;;;;;5.80;1.45;;;;;;;13.91;72.10;99806.31;6048942;28;20439;-73
2023/03/23 10:26:55;;;;;;;5.28;1.33;;;;;;;13.79;71.37;99797.16;6049880;28;20041;-73
2023/03/23 10:29:58;;;;;;;4.03;1.40;;;;;;;13.78;72.05;99809.66;6008357;28;20050;-74
2023/03/23 10:32:58;;;;;;;2.55;1.23;;;;;;;13.73;72.14;99793.41;6047445;28;20034;-73
2023/03/23 10:36:00;;;;;;;3.75;1.10;;;;;;;13.62;72.15;99812.53;6043358;28;20040;-73
2023/03/23 10:39:12;;;;;;;5.95;1.10;;;;;;;13.68;72.52;99817.13;6049581;28;20030;-73
2023/03/23 10:42:09;;;;;;;5.68;1.60;;;;;;;13.68;72.64;99798.47;6044684;28;20341;-73
2023/03/23 10:45:17;;;;;;;3.22;1.30;;;;;;;13.78;72.53;99817.66;6046807;28;20537;-74
2023/03/23 10:48:32;;;;;;;4.00;1.20;;;;;;;13.83;71.35;99811.78;6049636;28;20045;-72
2023/03/23 10:51:35;;;;;;;3.78;1.13;;;;;;;13.83;71.62;99819.78;6049256;28;20025;-74
2023/03/23 10:54:38;;;;;;;3.47;1.15;;;;;;;13.84;72.01;99816.91;6046767;28;20159;-73
2023/03/23 10:57:35;;;;;;;8.18;1.52;;;;;;;13.86;71.09;99798.88;6046048;28;20041;-73
2023/03/23 11:00:31;;;;;;;4.85;1.30;;;;;;;14.07;71.28;99804.22;6048760;28;20046;-73
2023/03/23 11:03:41;;;;;;;5.63;1.35;;;;;;;14.06;70.06;99810.56;6047883;28;20394;-73
2023/03/23 11:06:39;;;;;;;5.68;1.75;;;;;;;14.09;70.23;99804.84;6044973;28;20125;-73
2023/03/23 11:09:40;;;;;;;13.98;1.67;;;;;;;14.20;69.54;99817.69;6046060;28;20034;-73
2023/03/23 11:12:36;;;;;;;6.55;1.33;;;;;;;14.49;68.33;99789.22;6047303;28;20107;-72
2023/03/23 11:15:37;;;;;;;5.93;1.30;;;;;;;14.76;68.79;99799.06;6048646;28;20038;-73
2023/03/23 11:18:42;;;;;;;6.70;2.47;;;;;;;15.04;66.32;99789.16;6046528;28;20021;-73
2023/03/23 11:21:38;;;;;;;5.07;1.52;;;;;;;15.20;65.66;99804.88;6048281;28;20033;-73
2023/03/23 11:24:45;;;;;;;6.45;1.30;;;;;;;15.29;64.82;99803.69;6047119;28;20034;-73
2023/03/23 11:27:40;;;;;;;;;;;;;;;15.47;64.58;99809.34;6048070;28;20449;-73
2023/03/23 11:30:36;;;;;;;5.07;1.15;;;;;;;15.65;63.24;99811.47;6047814;28;19921;-72
2023/03/23 11:33:47;;;;;;;2.33;1.00;;;;;;;15.64;62.80;99788.44;6048123;28;20037;-73
2023/03/23 11:36:55;;;;;;;6.25;1.40;;;;;;;16.17;61.83;99792.00;6038524;28;20286;-73
2023/03/23 11:40:00;;;;;;;4.88;1.20;;;;;;;16.25;61.29;99794.47;6037691;28;20058;-73
2023/03/23 11:42:57;;;;;;;8.50;1.40;;;;;;;16.56;60.46;99807.28;6048456;28;20092;-73
2023/03/23 11:45:59;;;;;;;3.55;1.10;;;;;;;15.96;58.16;99809.06;6054073;28;20025;-73
2023/03/23 11:48:59;;;;;;;9.02;1.60;;;;;;;15.83;60.13;99784.97;6046545;28;20041;-73
2023/03/23 11:52:02;;;;;;;5.50;1.40;;;;;;;16.17;58.85;99791.22;6051278;28;20044;-72
2023/03/23 11:55:12;;;;;;;8.02;1.45;;;;;;;16.63;57.82;99800.91;6047024;28;20031;-72
2023/03/23 11:58:15;;;;;;;5.45;1.20;;;;;;;16.83;57.18;99792.00;6051753;28;20026;-72
2023/03/23 12:01:43;;;;;;;6.93;1.42;;;;;;;16.40;57.07;99787.09;6053449;28;20079;-72
2023/03/23 12:04:46;;;;;;;5.50;1.30;;;;;;;16.03;57.33;99798.41;6052802;28;20065;-72
2023/03/23 12:07:47;;;;;;;7.22;1.27;;;;;;;15.83;57.80;99801.03;6052478;28;20477;-72
2023/03/23 12:11:13;;;;;;;4.57;1.40;;;;;;;15.76;57.59;99799.38;6053102;28;20083;-72
2023/03/23 12:14:37;;;;;;;3.17;0.98;;;;;;;15.57;57.22;99792.13;6040197;28;20117;-72
2023/03/23 12:17:37;;;;;;;4.97;1.27;;;;;;;15.53;57.89;99810.38;6045439;28;20034;-73
2023/03/23 12:20:52;;;;;;;6.47;1.20;;;;;;;15.18;58.82;99796.25;6052614;28;20038;-72
2023/03/23 12:23:58;;;;;;;5.68;1.50;;;;;;;15.18;59.12;99793.56;6050499;28;20495;-72
2023/03/23 12:27:10;;;;;;;9.73;2.25;;;;;;;15.19;60.02;99786.38;6062198;28;20038;-73
2023/03/23 12:30:24;;;;;;;5.63;1.25;;;;;;;15.17;59.67;99794.56;6051193;28;20037;-73
2023/03/23 12:33:45;;;;;;;6.95;1.42;;;;;;;14.96;59.54;99778.66;6050050;28;20040;-73
2023/03/23 12:37:18;;;;;;;3.40;1.33;;;;;;;14.89;59.87;99801.84;6041018;28;20049;-72
2023/03/23 12:40:36;;;;;;;4.53;1.50;;;;;;;14.73;61.13;99794.13;6039597;28;20079;-73
2023/03/23 12:43:39;;;;;;;6.20;1.50;;;;;;;14.66;61.27;99807.41;6044205;28;20080;-73
2023/03/23 12:46:51;;;;;;;3.63;1.40;;;;;;;14.29;67.01;99821.84;6050517;28;20044;-73
2023/03/23 12:49:53;;;;;;;7.65;1.60;;;;;;;13.70;72.00;99841.75;6050586;28;20030;-72
2023/03/23 12:53:09;;;;;;;4.35;1.50;;;;;;;13.25;76.28;99853.47;6048378;28;20065;-72
2023/03/23 12:56:16;;;;;;;5.57;1.90;;;;;;;12.49;84.22;99851.06;6039287;28;20100;-72
2023/03/23 12:59:20;;;;;;;4.97;2.17;;;;;;;12.24;84.85;99841.63;6049393;28;20034;-73
2023/03/23 13:02:23;;;;;;;2.88;0.98;;;;;;;12.34;81.11;99855.50;6049937;28;20037;-73
2023/03/23 13:05:22;;;;;;;3.72;1.20;;;;;;;12.36;80.08;99864.16;6049900;28;20032;-72
2023/03/23 13:08:20;;;;;;;2.35;1.10;;;;;;;12.40;80.46;99857.44;6050950;28;20565;-72
2023/03/23 13:11:22;;;;;;;3.90;1.50;;;;;;;12.39;80.38;99866.44;6051548;28;20034;-73
2023/03/23 13:14:32;;;;;;;2.47;0.98;;;;;;;12.53;79.91;99865.66;6036699;28;20033;-73
2023/03/23 13:17:47;;;;;;;3.05;0.90;;;;;;;12.57;78.26;99861.63;6048913;28;20064;-73
2023/03/23 13:20:51;;;;;;;4.63;0.80;;;;;;;12.76;78.23;99885.06;6044994;28;20037;-72
2023/03/23 13:23:50;;;;;;;2.97;0.90;;;;;;;12.51;80.76;99888.94;6050520;28;20034;-72
2023/03/23 13:26:47;;;;;;;2.03;0.90;;;;;;;12.11;81.53;99887.41;6050873;28;20120;-71
2023/03/23 13:29:46;;;;;;;1.83;0.70;;;;;;;12.03;80.02;99902.56;6051045;28;20040;-72
2023/03/23 13:32:42;;;;;;;1.55;1.10;;;;;;;11.87;80.48;99891.06;6042696;28;20033;-72
2023/03/23 13:35:38;;;;;;;1.92;0.60;;;;;;;11.92;79.49;99880.72;6050572;28;20034;-71
2023/03/23 13:38:35;;;;;;;0.93;0.43;;;;;;;12.04;76.11;99885.66;6042561;28;20030;-73
2023/03/23 13:41:30;;;;;;;2.45;0.45;;;;;;;12.17;74.86;99891.19;6047062;28;20038;-72
2023/03/23 13:44:27;;;;;;;4.10;0.77;;;;;;;12.47;73.79;99880.47;6045153;28;20049;-74
2023/03/23 13:47:22;;;;;;;0.77;0.30;;;;;;;12.72;72.35;99883.75;6032766;28;20103;-72
2023/03/23 13:50:19;;;;;;;0.95;0.40;;;;;;;12.76;70.94;99889.56;6033843;28;20481;-73
2023/03/23 13:53:24;;;;;;;3.10;0.40;;;;;;;12.87;70.50;99884.63;6042901;28;20093;-73
2023/03/23 13:56:55;;;;;;;1.13;0.32;;;;;;;12.98;68.41;99888.69;6046329;28;20113;-73
2023/03/23 13:59:56;;;;;;;0.93;0.40;;;;;;;12.76;67.74;99874.44;6049801;28;20041;-72
2023/03/23 14:03:10;;;;;;;3.83;0.73;;;;;;;12.80;67.85;99888.22;6041345;28;20483;-73
2023/03/23 14:06:07;;;;;;;1.08;0.50;;;;;;;12.79;68.95;99900.69;6048531;28;20615;-73